Camaqua, Brazil
Current Conditions -  °F | °C
As of 4:00 PM on Saturday 24 Jan 2015 (Local Time) from SBPK Reporting Station
Clear Clear  
Wind Chill: 30°   Ceiling: Unl
Heat Index: 32°   Visibility: 6mi
Dew Point: 20°   Wind: 14mph
Humidity: 55%   Direction: 90°E
Pressure: 29.85"   Gusts: NA
Location:  30.85°S, 51.81°W
Report Text: SBPK 241800Z 09012KT CAVOK 30/20 Q1011
Loading
Personal Weather Stations






























Interactive Weather Map New forecast layout! Learn more

10-Day Weather Forecast

Advertisements
Track Severe Weather on mobile